Time;durP1;ratioP1;P1;durP2;ratioP2;P2;SDS_P1;SDS_P2;PMS_P1;PMS_P2;Temp;Humidity;BMP_temperature;BMP_pressure;BME280_temperature;BME280_humidity;BME280_pressure;Samples;Min_cycle;Max_cycle;Signal;HPM_P1;HPM_P2
2021/09/26 00:01:50;;;;;;;;;;;;;;;20.00;54.87;101450.44;5015324;28;1290;-60
2021/09/26 00:04:15;;;;;;;;;;;;;;;20.25;54.34;101448.72;5015905;28;1150;-61
2021/09/26 00:06:40;;;;;;;;;;;;;;;20.08;54.54;101441.59;5017045;28;1983;-60
2021/09/26 00:09:06;;;;;;;;;;;;;;;20.00;54.80;101440.22;5015028;28;1281;-61
2021/09/26 00:11:31;;;;;;;;;;;;;;;20.00;54.93;101442.97;5015540;28;1198;-62
2021/09/26 00:13:57;;;;;;;;;;;;;;;19.99;54.95;101434.97;5015701;28;1317;-61
2021/09/26 00:16:22;;;;;;;;;;;;;;;19.93;55.12;101430.59;5014904;28;1289;-60
2021/09/26 00:18:48;;;;;;;;;;;;;;;20.15;54.40;101422.78;5015378;28;1356;-60
2021/09/26 00:21:13;;;;;;;;;;;;;;;20.09;54.73;101429.44;5015949;28;1496;-60
2021/09/26 00:23:39;;;;;;;;;;;;;;;20.06;54.88;101426.41;5015900;28;1577;-60
2021/09/26 00:26:04;;;;;;;;;;;;;;;19.99;55.01;101424.78;4997364;28;1036;-60
2021/09/26 00:28:30;;;;;;;;;;;;;;;19.93;55.12;101431.41;5012566;28;1910;-60
2021/09/26 00:30:55;;;;;;;;;;;;;;;19.89;55.30;101429.50;5015235;28;1296;-60
2021/09/26 00:33:21;;;;;;;;;;;;;;;19.84;55.42;101430.34;5015138;28;1274;-59
2021/09/26 00:35:46;;;;;;;;;;;;;;;19.98;54.91;101430.59;5014658;28;1580;-60
2021/09/26 00:38:11;;;;;;;;;;;;;;;19.81;55.23;101431.75;5014751;28;1114;-60
2021/09/26 00:40:37;;;;;;;;;;;;;;;20.09;54.84;101425.84;5015046;28;1286;-60
2021/09/26 00:43:03;;;;;;;;;;;;;;;19.99;54.92;101423.94;5015063;28;1103;-60
2021/09/26 00:45:28;;;;;;;;;;;;;;;19.86;55.17;101430.06;5014500;28;1397;-60
2021/09/26 00:47:54;;;;;;;;;;;;;;;19.88;55.09;101431.44;5014732;28;1976;-59
2021/09/26 00:50:19;;;;;;;;;;;;;;;19.70;55.58;101437.50;5014749;28;1171;-59
2021/09/26 00:52:45;;;;;;;;;;;;;;;19.88;55.01;101433.38;5014544;28;1358;-60
2021/09/26 00:55:10;;;;;;;;;;;;;;;19.81;55.49;101434.50;5014959;28;1005;-59
2021/09/26 00:57:36;;;;;;;;;;;;;;;19.75;55.50;101435.56;5014704;28;1325;-59
2021/09/26 01:00:01;;;;;;;;;;;;;;;19.74;55.76;101433.09;5001588;28;1285;-59
2021/09/26 01:02:27;;;;;;;;;;;;;;;19.71;55.72;101425.38;5014332;28;1273;-59
2021/09/26 01:04:52;;;;;;;;;;;;;;;19.65;55.99;101436.41;5014601;28;1352;-59
2021/09/26 01:07:24;;;;;;;;;;;;;;;19.70;55.78;101432.00;5014100;28;1910;-60
2021/09/26 01:10:02;;;;;;;;;;;;;;;19.77;55.39;101430.59;4996840;28;1433;-57
2021/09/26 01:12:27;;;;;;;;;;;;;;;19.71;55.67;101431.72;5014261;28;1460;-55
2021/09/26 01:14:53;;;;;;;;;;;;;;;19.70;55.64;101427.31;5014526;28;1168;-59
2021/09/26 01:17:27;;;;;;;;;;;;;;;19.89;55.10;101423.97;5014127;28;1270;-58
2021/09/26 01:19:52;;;;;;;;;;;;;;;19.88;55.20;101423.16;5014432;28;1056;-55
2021/09/26 01:22:21;;;;;;;;;;;;;;;19.95;54.92;101414.56;5014497;28;1080;-56
2021/09/26 01:25:05;;;;;;;;;;;;;;;19.80;55.20;101416.28;4997053;28;1215;-55
2021/09/26 01:27:33;;;;;;;;;;;;;;;19.88;55.08;101414.03;5011378;28;1902;-56
2021/09/26 01:30:11;;;;;;;;;;;;;;;19.85;55.12;101420.13;5013933;28;1306;-55
2021/09/26 01:32:37;;;;;;;;;;;;;;;19.88;55.15;101417.66;5012290;28;1196;-56
2021/09/26 01:35:03;;;;;;;;;;;;;;;19.82;55.23;101424.28;4997392;28;1372;-55
2021/09/26 01:37:30;;;;;;;;;;;;;;;19.81;55.29;101417.94;5013695;28;1171;-55
2021/09/26 01:39:58;;;;;;;;;;;;;;;19.91;54.94;101419.00;5013764;28;1282;-59
2021/09/26 01:42:25;;;;;;;;;;;;;;;19.77;55.58;101425.09;5014885;28;1214;-55
2021/09/26 01:44:50;;;;;;;;;;;;;;;19.75;55.47;101423.72;4995344;28;1151;-55
2021/09/26 01:47:16;;;;;;;;;;;;;;;19.85;55.21;101431.16;5013453;28;1903;-56
2021/09/26 01:49:45;;;;;;;;;;;;;;;19.80;55.44;101424.56;4998822;28;1344;-54
2021/09/26 01:52:16;;;;;;;;;;;;;;;19.78;55.38;101434.19;4997135;28;1290;-55
2021/09/26 01:54:42;;;;;;;;;;;;;;;19.95;54.83;101428.38;5013595;28;1387;-57
2021/09/26 01:57:07;;;;;;;;;;;;;;;19.77;55.51;101433.38;5014295;28;1380;-55
2021/09/26 01:59:32;;;;;;;;;;;;;;;19.80;55.27;101430.06;4996646;28;1290;-57
2021/09/26 02:01:58;;;;;;;;;;;;;;;19.71;55.67;101434.47;4997908;28;1270;-58
2021/09/26 02:04:24;;;;;;;;;;;;;;;19.77;55.40;101427.84;4997001;28;1506;-58
2021/09/26 02:06:49;;;;;;;;;;;;;;;19.72;55.41;101430.59;5013516;28;1926;-58
2021/09/26 02:09:15;;;;;;;;;;;;;;;19.66;55.79;101432.56;4997064;28;1457;-58
2021/09/26 02:11:40;;;;;;;;;;;;;;;19.79;55.37;101433.09;5013754;28;1424;-56
2021/09/26 02:14:06;;;;;;;;;;;;;;;19.73;55.33;101429.50;5014466;28;1498;-58
2021/09/26 02:16:31;;;;;;;;;;;;;;;19.91;55.12;101433.66;5014236;28;1560;-58
2021/09/26 02:18:57;;;;;;;;;;;;;;;19.81;55.39;101430.88;5001021;28;1520;-58
2021/09/26 02:21:22;;;;;;;;;;;;;;;19.90;54.92;101434.75;5012687;28;1457;-58
2021/09/26 02:23:48;;;;;;;;;;;;;;;20.09;54.62;101426.69;5014162;28;1510;-58
2021/09/26 02:26:13;;;;;;;;;;;;;;;19.86;55.16;101430.06;5004956;28;1559;-58
2021/09/26 02:28:39;;;;;;;;;;;;;;;19.91;54.86;101433.66;5014171;28;1979;-59
2021/09/26 02:31:09;;;;;;;;;;;;;;;19.89;55.11;101429.50;5014092;28;1528;-59
2021/09/26 02:33:35;;;;;;;;;;;;;;;19.93;54.91;101425.91;5014042;28;1316;-58
2021/09/26 02:36:04;;;;;;;;;;;;;;;19.98;54.62;101416.78;5014050;28;1490;-58
2021/09/26 02:38:30;;;;;;;;;;;;;;;19.82;55.26;101427.88;5013576;28;1657;-58
2021/09/26 02:40:58;;;;;;;;;;;;;;;19.96;54.92;101430.03;5015412;28;1437;-58
2021/09/26 02:43:28;;;;;;;;;;;;;;;19.91;54.95;101421.75;4999758;28;1662;-58
2021/09/26 02:45:56;;;;;;;;;;;;;;;19.82;55.04;101436.16;4996577;28;1503;-58
2021/09/26 02:48:22;;;;;;;;;;;;;;;19.80;55.42;101424.56;5015335;28;1971;-58
2021/09/26 02:50:48;;;;;;;;;;;;;;;19.89;55.23;101430.31;5017963;28;1536;-58
2021/09/26 02:53:13;;;;;;;;;;;;;;;19.65;55.77;101424.56;5017204;28;1274;-58
2021/09/26 02:55:39;;;;;;;;;;;;;;;19.72;55.47;101425.09;5000140;28;1530;-58
2021/09/26 02:58:05;;;;;;;;;;;;;;;19.76;55.39;101426.19;5017295;28;1211;-58
2021/09/26 03:00:37;;;;;;;;;;;;;;;19.71;55.69;101428.94;5017596;28;1666;-58
2021/09/26 03:03:05;;;;;;;;;;;;;;;19.68;55.64;101435.03;5017492;28;1467;-58
2021/09/26 03:05:31;;;;;;;;;;;;;;;19.72;55.49;101429.78;5017524;28;1644;-58
2021/09/26 03:07:56;;;;;;;;;;;;;;;19.75;55.59;101424.53;5016307;28;1911;-58
2021/09/26 03:10:22;;;;;;;;;;;;;;;19.63;55.84;101427.59;5016839;28;1516;-58
2021/09/26 03:12:47;;;;;;;;;;;;;;;19.70;55.78;101426.47;5017241;28;1228;-58
2021/09/26 03:15:12;;;;;;;;;;;;;;;19.66;55.71;101426.22;5016846;28;1491;-58
2021/09/26 03:17:38;;;;;;;;;;;;;;;19.58;55.75;101429.53;5017029;28;1788;-57
2021/09/26 03:20:03;;;;;;;;;;;;;;;19.74;55.42;101433.94;5017265;28;1555;-58
2021/09/26 03:22:29;;;;;;;;;;;;;;;19.66;55.61;101431.75;5016415;28;1099;-55
2021/09/26 03:24:54;;;;;;;;;;;;;;;19.68;55.59;101421.22;5017000;28;1430;-58
2021/09/26 03:27:20;;;;;;;;;;;;;;;19.54;55.97;101428.44;5017160;28;1914;-57
2021/09/26 03:29:45;;;;;;;;;;;;;;;19.76;55.44;101425.38;5016356;28;1501;-57
2021/09/26 03:32:11;;;;;;;;;;;;;;;19.53;55.91;101432.28;5016791;28;1612;-59
2021/09/26 03:34:36;;;;;;;;;;;;;;;19.79;55.28;101435.84;5017119;28;961;-59
2021/09/26 03:37:02;;;;;;;;;;;;;;;19.60;55.86;101422.66;5015921;28;1508;-59
2021/09/26 03:39:27;;;;;;;;;;;;;;;19.55;55.91;101427.34;5016366;28;1194;-58
2021/09/26 03:41:53;;;;;;;;;;;;;;;19.71;55.55;101420.66;5016569;28;1564;-58
2021/09/26 03:44:18;;;;;;;;;;;;;;;19.68;55.56;101429.50;5015972;28;1251;-59
2021/09/26 03:46:44;;;;;;;;;;;;;;;19.70;55.59;101427.31;5016120;28;1910;-59
2021/09/26 03:49:09;;;;;;;;;;;;;;;19.75;55.54;101424.53;5015827;28;1107;-59
2021/09/26 03:51:34;;;;;;;;;;;;;;;19.76;55.24;101420.66;5015453;28;1281;-60
2021/09/26 03:54:00;;;;;;;;;;;;;;;19.65;55.68;101419.84;5015991;28;1261;-61
2021/09/26 03:56:25;;;;;;;;;;;;;;;19.83;55.18;101420.41;5015964;28;1341;-61
2021/09/26 03:58:51;;;;;;;;;;;;;;;19.80;55.32;101420.97;5015101;28;1377;-59
2021/09/26 04:01:16;;;;;;;;;;;;;;;19.67;55.49;101422.38;5016320;28;1833;-54
2021/09/26 04:03:42;;;;;;;;;;;;;;;19.63;55.77;101422.09;4997902;28;1615;-57
2021/09/26 04:06:10;;;;;;;;;;;;;;;19.64;55.59;101433.94;5015291;28;1467;-58
2021/09/26 04:08:38;;;;;;;;;;;;;;;19.81;55.25;101428.13;5015828;28;2044;-61
2021/09/26 04:11:05;;;;;;;;;;;;;;;19.75;55.37;101430.03;5015778;28;1452;-59
2021/09/26 04:13:30;;;;;;;;;;;;;;;19.57;55.93;101425.97;5016077;28;1446;-59
2021/09/26 04:15:55;;;;;;;;;;;;;;;19.56;55.96;101409.66;5015859;28;1709;-59
2021/09/26 04:18:21;;;;;;;;;;;;;;;19.47;56.36;101415.78;5016285;28;1457;-57
2021/09/26 04:20:46;;;;;;;;;;;;;;;19.52;56.35;101414.09;5015496;28;1642;-58
2021/09/26 04:23:12;;;;;;;;;;;;;;;19.57;56.28;101417.69;5015693;28;1215;-58
2021/09/26 04:25:37;;;;;;;;;;;;;;;19.58;56.09;101415.75;5016142;28;1360;-59
2021/09/26 04:31:28;;;;;;;;;;;;;;;19.62;56.24;101422.38;5012029;28;1358;-58
2021/09/26 04:33:54;;;;;;;;;;;;;;;19.54;56.19;101428.44;5015937;28;1492;-59
2021/09/26 04:36:19;;;;;;;;;;;;;;;19.56;56.40;101423.47;5015224;28;1581;-58
2021/09/26 04:38:45;;;;;;;;;;;;;;;19.55;56.38;101427.34;5015564;28;1445;-58
2021/09/26 04:41:10;;;;;;;;;;;;;;;19.55;56.20;101428.16;5015477;28;1584;-52
2021/09/26 04:43:35;;;;;;;;;;;;;;;19.63;56.29;101429.53;5015497;28;1438;-58
2021/09/26 04:46:01;;;;;;;;;;;;;;;19.59;56.31;101436.72;5015358;28;1643;-59
2021/09/26 04:48:26;;;;;;;;;;;;;;;19.91;55.10;101435.56;5015545;28;1975;-56
2021/09/26 04:50:52;;;;;;;;;;;;;;;19.96;55.12;101430.88;5008811;28;1559;-57
2021/09/26 04:56:39;;;;;;;;;;;;;;;19.68;56.01;101426.75;5010690;28;1550;-55
2021/09/26 04:59:04;;;;;;;;;;;;;;;19.57;56.22;101431.47;5015441;28;1218;-58
2021/09/26 05:01:30;;;;;;;;;;;;;;;19.69;55.88;101430.34;5015105;28;1450;-58
2021/09/26 05:03:55;;;;;;;;;;;;;;;19.79;55.77;101435.84;5014498;28;1437;-58
2021/09/26 05:06:20;;;;;;;;;;;;;;;19.70;56.02;101437.50;5013985;28;1551;-58
2021/09/26 05:08:46;;;;;;;;;;;;;;;19.87;55.47;101438.06;5015153;28;1930;-58
2021/09/26 05:11:11;;;;;;;;;;;;;;;19.91;55.41;101433.66;5015232;28;1549;-54
2021/09/26 05:13:37;;;;;;;;;;;;;;;19.90;55.16;101429.22;5014796;28;1491;-58
2021/09/26 05:16:02;;;;;;;;;;;;;;;19.71;55.95;101434.47;5015115;28;923;-56
2021/09/26 05:18:27;;;;;;;;;;;;;;;19.66;55.91;101438.06;5014931;28;1432;-55
2021/09/26 05:20:54;;;;;;;;;;;;;;;19.72;55.87;101436.13;5014591;28;1651;-54
2021/09/26 05:23:19;;;;;;;;;;;;;;;19.83;55.44;101443.31;5014284;28;1073;-54
2021/09/26 05:25:45;;;;;;;;;;;;;;;19.88;55.43;101444.41;5015258;28;1441;-55
2021/09/26 05:28:10;;;;;;;;;;;;;;;19.83;55.39;101437.78;5014755;28;1979;-56
2021/09/26 05:30:36;;;;;;;;;;;;;;;19.93;55.24;101444.41;5014828;28;1358;-56
2021/09/26 05:33:02;;;;;;;;;;;;;;;19.83;55.55;101448.00;5014508;28;1436;-55
2021/09/26 05:35:27;;;;;;;;;;;;;;;19.84;55.54;101441.38;5014421;28;1105;-57
2021/09/26 05:37:53;;;;;;;;;;;;;;;19.89;55.27;101429.50;5014405;28;1301;-55
2021/09/26 05:40:18;;;;;;;;;;;;;;;19.66;56.00;101442.78;5014730;28;1145;-53
2021/09/26 05:42:44;;;;;;;;;;;;;;;19.80;55.77;101440.28;5014449;28;1473;-54
2021/09/26 05:45:09;;;;;;;;;;;;;;;19.90;55.29;101437.50;5014673;28;1410;-54
2021/09/26 05:47:35;;;;;;;;;;;;;;;19.77;55.77;101438.88;5014694;28;1975;-55
2021/09/26 05:50:00;;;;;;;;;;;;;;;19.83;55.31;101436.97;5014129;28;1667;-50
2021/09/26 05:52:25;;;;;;;;;;;;;;;19.93;55.20;101447.16;5014108;28;1025;-59
2021/09/26 05:54:51;;;;;;;;;;;;;;;19.80;55.51;101449.38;5014818;28;1505;-56
2021/09/26 05:57:16;;;;;;;;;;;;;;;20.00;55.19;101453.22;5013827;28;1515;-59
2021/09/26 05:59:42;;;;;;;;;;;;;;;19.97;55.03;101448.25;5007485;28;1806;-59
2021/09/26 06:02:07;;;;;;;;;;;;;;;19.85;55.63;101456.00;5013420;28;1445;-59
2021/09/26 06:04:33;;;;;;;;;;;;;;;19.72;56.04;101451.88;5014328;28;1315;-57
2021/09/26 06:06:59;;;;;;;;;;;;;;;19.93;55.11;101447.97;5013953;28;1903;-60
2021/09/26 06:09:24;;;;;;;;;;;;;;;19.93;55.13;101456.25;5014478;28;1280;-57
2021/09/26 06:11:49;;;;;;;;;;;;;;;20.11;54.60;101457.59;5013468;28;1582;-60
2021/09/26 06:14:15;;;;;;;;;;;;;;;19.93;55.39;101453.50;5014496;28;1458;-60
2021/09/26 06:16:41;;;;;;;;;;;;;;;20.00;55.15;101458.72;5016931;28;1499;-54
2021/09/26 06:19:06;;;;;;;;;;;;;;;19.98;55.14;101455.44;5018004;28;1658;-62
2021/09/26 06:21:32;;;;;;;;;;;;;;;19.95;55.11;101456.81;5017552;28;1530;-62
2021/09/26 06:23:57;;;;;;;;;;;;;;;19.86;55.71;101457.66;5017834;28;1311;-58
2021/09/26 06:26:25;;;;;;;;;;;;;;;19.88;55.37;101452.69;5018070;28;1215;-58
2021/09/26 06:28:51;;;;;;;;;;;;;;;19.99;55.04;101459.81;5017952;28;1979;-59
2021/09/26 06:31:16;;;;;;;;;;;;;;;19.85;55.76;101456.00;5017795;28;1618;-50
2021/09/26 06:33:41;;;;;;;;;;;;;;;19.94;55.27;101459.88;5018048;28;1471;-57
2021/09/26 06:36:07;;;;;;;;;;;;;;;19.88;55.35;101453.53;5017081;28;1607;-56
2021/09/26 06:38:32;;;;;;;;;;;;;;;19.99;55.35;101457.91;5017644;28;1112;-53
2021/09/26 06:40:58;;;;;;;;;;;;;;;20.05;54.89;101458.72;5018586;28;1636;-54
2021/09/26 06:43:23;;;;;;;;;;;;;;;19.96;55.28;101464.00;5017443;28;1486;-54
2021/09/26 06:45:49;;;;;;;;;;;;;;;20.25;54.58;101457.00;5017613;28;1540;-55
2021/09/26 06:48:14;;;;;;;;;;;;;;;19.92;55.48;101462.06;5017361;28;1906;-57
2021/09/26 06:50:40;;;;;;;;;;;;;;;19.88;55.71;101474.75;5010998;28;1466;-59
2021/09/26 06:53:05;;;;;;;;;;;;;;;19.93;55.34;101467.28;5017148;28;1062;-55
2021/09/26 06:55:30;;;;;;;;;;;;;;;19.99;55.22;101473.63;5018315;28;1676;-57
2021/09/26 06:57:56;;;;;;;;;;;;;;;19.99;55.27;101474.47;5050449;22;2805;-59
2021/09/26 07:00:21;;;;;;;;;;;;;;;19.92;55.63;101473.09;4993792;28;2880;-59
2021/09/26 07:02:47;;;;;;;;;;;;;;;20.00;55.29;101476.09;5031774;22;1804;-60
2021/09/26 07:05:12;;;;;;;;;;;;;;;20.02;55.17;101478.63;5014781;28;1690;-62
2021/09/26 07:07:38;;;;;;;;;;;;;;;19.92;55.59;101475.88;5001171;28;1975;-64
2021/09/26 07:10:04;;;;;;;;;;;;;;;19.82;55.85;101476.72;5049086;23;1912;-62
2021/09/26 07:12:29;;;;;;;;;;;;;;;19.94;55.32;101479.19;5079604;22;2063;-66
2021/09/26 07:14:57;;;;;;;;;;;;;;;19.88;55.85;101485.81;5060278;22;1860;-58
2021/09/26 07:17:22;;;;;;;;;;;;;;;19.88;55.49;101485.81;5036125;28;2196;-58
2021/09/26 07:19:48;;;;;;;;;;;;;;;19.96;55.39;101485.25;5036426;28;1436;-59
2021/09/26 07:22:13;;;;;;;;;;;;;;;19.94;55.44;101485.53;5018159;28;1360;-59
2021/09/26 07:24:39;;;;;;;;;;;;;;;19.97;55.52;101481.38;5036998;28;1457;-59
2021/09/26 07:27:04;;;;;;;;;;;;;;;19.89;55.59;101481.94;5035045;28;1890;-59
2021/09/26 07:29:29;;;;;;;;;;;;;;;19.98;55.59;101486.63;5018903;28;1473;-61
2021/09/26 07:31:55;;;;;;;;;;;;;;;19.98;55.35;101489.38;5057425;22;2099;-60
2021/09/26 07:34:20;;;;;;;;;;;;;;;19.97;55.53;101487.72;5023859;28;1274;-69
2021/09/26 07:36:46;;;;;;;;;;;;;;;20.07;55.23;101484.09;5026050;28;1075;-61
2021/09/26 07:39:11;;;;;;;;;;;;;;;19.94;55.42;101459.88;5045948;22;2161;-59
2021/09/26 07:41:37;;;;;;;;;;;;;;;19.99;55.49;101484.66;5010112;28;1428;-59
2021/09/26 07:44:02;;;;;;;;;;;;;;;19.96;55.64;101482.47;5038516;22;2121;-58
2021/09/26 07:46:28;;;;;;;;;;;;;;;19.85;55.95;101480.84;5051753;28;1931;-58
2021/09/26 07:48:53;;;;;;;;;;;;;;;19.86;56.06;101472.28;5030116;22;2282;-60
2021/09/26 07:51:18;;;;;;;;;;;;;;;19.79;56.16;101482.75;5001755;28;1587;-62
2021/09/26 07:53:44;;;;;;;;;;;;;;;19.86;55.86;101479.75;5056367;22;2513;-61
2021/09/26 07:56:09;;;;;;;;;;;;;;;19.86;55.72;101488.03;5040697;28;1366;-57
2021/09/26 07:58:35;;;;;;;;;;;;;;;19.82;55.79;101485.84;5018803;22;2085;-58
2021/09/26 08:01:01;;;;;;;;;;;;;;;19.97;55.45;101484.13;5021744;22;2095;-71
2021/09/26 08:03:30;;;;;;;;;;;;;;;19.83;55.89;101490.22;5073389;22;2123;31
2021/09/26 08:05:55;;;;;;;;;;;;;;;19.81;55.97;101495.22;5000131;28;1454;-60
2021/09/26 08:08:21;;;;;;;;;;;;;;;20.00;55.47;101483.56;5016850;22;2640;-61
2021/09/26 08:10:47;;;;;;;;;;;;;;;19.96;55.58;101483.31;5032687;22;2060;-58
2021/09/26 08:13:12;;;;;;;;;;;;;;;20.11;55.14;101485.19;5015409;28;1273;-54
2021/09/26 08:15:38;;;;;;;;;;;;;;;19.92;55.59;101489.66;5006318;28;1239;-58
2021/09/26 08:18:03;;;;;;;;;;;;;;;19.80;55.92;101482.50;5013732;28;1372;-57
2021/09/26 08:20:29;;;;;;;;;;;;;;;19.88;55.85;101483.03;5000388;28;1468;-57
2021/09/26 08:22:54;;;;;;;;;;;;;;;19.83;55.74;101473.66;5007872;28;1705;-57
2021/09/26 08:25:23;;;;;;;;;;;;;;;19.97;55.44;101470.34;5005661;28;1437;-55
2021/09/26 08:27:49;;;;;;;;;;;;;;;20.06;55.46;101468.63;5003157;28;1914;-59
2021/09/26 08:30:15;;;;;;;;;;;;;;;19.88;55.71;101466.47;4997024;28;1499;-58
2021/09/26 08:32:41;;;;;;;;;;;;;;;20.08;55.18;101463.69;4998979;28;1646;-62
2021/09/26 08:35:06;;;;;;;;;;;;;;;19.97;55.43;101459.28;5007574;28;1706;-64
2021/09/26 08:56:26;;;;;;;;;;;;;;;19.97;57.01;101439.97;6163751;22;2089;-66
2021/09/26 08:58:52;;;;;;;;;;;;;;;20.03;56.87;101449.06;5196994;22;3832;-49
2021/09/26 09:01:18;;;;;;;;;;;;;;;20.04;56.60;101446.03;5035836;28;1087;-51
2021/09/26 09:03:47;;;;;;;;;;;;;;;19.94;56.78;101440.53;5035638;28;1289;-53
2021/09/26 09:06:12;;;;;;;;;;;;;;;19.92;56.52;101443.59;5035152;28;1501;-54
2021/09/26 09:08:41;;;;;;;;;;;;;;;19.77;56.90;101438.88;5032652;28;1910;-55
2021/09/26 09:11:06;;;;;;;;;;;;;;;19.82;56.70;101433.41;5035149;28;1056;-54
2021/09/26 09:13:32;;;;;;;;;;;;;;;19.86;56.39;101435.59;5154883;22;3785;-59
2021/09/26 09:16:00;;;;;;;;;;;;;;;19.87;56.32;101426.22;4991695;28;1510;-60
2021/09/26 09:18:34;;;;;;;;;;;;;;;19.91;56.17;101419.00;4995807;28;1505;-60
2021/09/26 09:21:00;;;;;;;;;;;;;;;19.66;56.91;101420.69;4995520;28;1447;-60
2021/09/26 09:23:25;;;;;;;;;;;;;;;19.69;56.76;101417.38;4977777;28;1371;-60
2021/09/26 09:25:52;;;;;;;;;;;;;;;19.79;56.38;101422.88;4995735;28;1450;-60
2021/09/26 09:28:27;;;;;;;;;;;;;;;19.73;56.73;101414.91;4995242;28;1914;-60
2021/09/26 09:31:02;;;;;;;;;;;;;;;19.65;56.75;101417.09;4995775;28;1507;-59
2021/09/26 09:33:43;;;;;;;;;;;;;;;19.62;57.17;101422.38;4995398;28;1591;-60
2021/09/26 09:36:19;;;;;;;;;;;;;;;19.71;56.81;101411.56;4995881;28;1587;-59
2021/09/26 09:38:45;;;;;;;;;;;;;;;19.66;56.81;101415.19;4993195;28;1416;-60
2021/09/26 09:41:10;;;;;;;;;;;;;;;19.63;56.78;101416.56;4995532;28;1488;-60
2021/09/26 09:43:48;;;;;;;;;;;;;;;19.63;56.85;101421.25;4995187;28;1493;-59
2021/09/26 09:46:14;;;;;;;;;;;;;;;19.60;56.88;101416.28;4995322;28;1443;-60
2021/09/26 09:48:40;;;;;;;;;;;;;;;19.75;56.53;101418.19;4994699;28;1906;-60
2021/09/26 09:51:06;;;;;;;;;;;;;;;19.62;56.93;101419.59;4994677;28;1475;-60
2021/09/26 09:53:32;;;;;;;;;;;;;;;19.70;56.77;101421.81;4997818;28;1356;-60
2021/09/26 09:55:59;;;;;;;;;;;;;;;19.77;56.55;101422.34;4995179;28;1767;-59
2021/09/26 09:58:24;;;;;;;;;;;;;;;19.65;56.88;101419.03;4994597;28;1684;-59
2021/09/26 10:00:54;;;;;;;;;;;;;;;19.64;57.07;101417.38;4994397;28;1456;-59
2021/09/26 10:03:39;;;;;;;;;;;;;;;19.66;56.77;101416.00;4995163;28;1573;-59
2021/09/26 10:06:23;;;;;;;;;;;;;;;19.62;56.74;101414.09;4994704;28;2087;-59
2021/09/26 10:08:48;;;;;;;;;;;;;;;19.51;56.93;101398.66;4994943;28;1981;-59
2021/09/26 10:11:14;;;;;;;;;;;;;;;19.51;57.23;101412.44;4995133;28;1237;-60
2021/09/26 10:13:39;;;;;;;;;;;;;;;19.52;57.09;101420.44;4993411;28;2056;-59
2021/09/26 10:16:05;;;;;;;;;;;;;;;19.64;56.77;101409.09;4992960;28;1409;-59
2021/09/26 10:18:31;;;;;;;;;;;;;;;19.56;57.16;101409.66;4978745;28;1179;-60
2021/09/26 10:20:56;;;;;;;;;;;;;;;19.62;56.75;101416.84;4995075;28;1427;-58
2021/09/26 10:23:22;;;;;;;;;;;;;;;19.67;56.98;101416.84;4996593;28;1286;-60
2021/09/26 10:25:47;;;;;;;;;;;;;;;19.65;56.87;101414.34;4980691;28;1435;-60
2021/09/26 10:28:13;;;;;;;;;;;;;;;19.55;57.25;101408.84;4977465;28;1993;-61
2021/09/26 10:30:38;;;;;;;;;;;;;;;19.71;56.86;101406.06;4977704;28;1252;-58
2021/09/26 10:33:03;;;;;;;;;;;;;;;19.51;57.17;101405.00;4995097;28;1439;-60
2021/09/26 10:35:29;;;;;;;;;;;;;;;19.58;57.14;101401.94;4977588;28;1474;-59
2021/09/26 10:37:54;;;;;;;;;;;;;;;19.72;56.72;101396.69;4995102;28;1320;-59
2021/09/26 10:40:20;;;;;;;;;;;;;;;19.64;57.06;101398.06;4995137;28;1212;-58
2021/09/26 10:42:45;;;;;;;;;;;;;;;19.68;56.81;101393.66;4995162;28;1013;-58
2021/09/26 10:45:12;;;;;;;;;;;;;;;19.64;56.98;101392.53;4995181;28;1156;-59
2021/09/26 10:47:38;;;;;;;;;;;;;;;19.59;57.15;101389.81;4978457;28;1976;-59
2021/09/26 10:50:15;;;;;;;;;;;;;;;19.64;57.14;101379.59;4995329;28;1222;-59
2021/09/26 10:52:44;;;;;;;;;;;;;;;19.57;57.24;101379.06;4994398;28;942;-59
2021/09/26 10:55:18;;;;;;;;;;;;;;;19.58;57.16;101377.94;4994725;28;1510;-59
2021/09/26 10:57:44;;;;;;;;;;;;;;;19.56;57.17;101379.31;4994428;28;1181;-59
2021/09/26 11:00:09;;;;;;;;;;;;;;;19.62;56.94;101383.75;4994755;28;1284;-59
2021/09/26 11:02:35;;;;;;;;;;;;;;;19.58;57.09;101374.38;4995955;28;1090;-59
2021/09/26 11:05:02;;;;;;;;;;;;;;;19.56;57.25;101371.03;4997864;28;1518;-60
2021/09/26 11:07:28;;;;;;;;;;;;;;;19.66;56.92;101382.06;4997655;28;1915;-59
2021/09/26 11:10:04;;;;;;;;;;;;;;;19.56;57.26;101368.28;4998197;28;1473;-59
2021/09/26 11:12:41;;;;;;;;;;;;;;;19.65;57.11;101372.13;4997841;28;1532;-59
2021/09/26 11:15:11;;;;;;;;;;;;;;;19.74;56.88;101364.09;4997282;28;1448;-58
2021/09/26 11:17:40;;;;;;;;;;;;;;;19.72;56.86;101361.63;4998165;28;1585;-58
2021/09/26 11:20:06;;;;;;;;;;;;;;;19.79;56.91;101359.41;4998080;28;1474;-59
2021/09/26 11:22:31;;;;;;;;;;;;;;;19.75;56.74;101358.31;4998439;28;1315;-61
2021/09/26 11:24:58;;;;;;;;;;;;;;;19.66;57.03;101349.78;4998625;28;1446;-59
2021/09/26 11:27:30;;;;;;;;;;;;;;;19.52;57.72;101356.16;4998488;28;1981;-60
2021/09/26 11:30:01;;;;;;;;;;;;;;;19.70;57.00;101349.22;4997859;28;2054;-59
2021/09/26 11:32:31;;;;;;;;;;;;;;;19.66;57.02;101346.22;4997674;28;1423;-59
2021/09/26 11:35:00;;;;;;;;;;;;;;;19.68;57.10;101343.97;4997386;28;1669;-60
2021/09/26 11:37:38;;;;;;;;;;;;;;;19.69;57.19;101348.41;5000051;28;1054;-59
2021/09/26 11:40:04;;;;;;;;;;;;;;;19.66;57.22;101340.69;4997926;28;1672;-59
2021/09/26 11:42:36;;;;;;;;;;;;;;;19.54;57.59;101334.66;5004049;28;1699;-59
2021/09/26 11:45:03;;;;;;;;;;;;;;;19.63;57.46;101330.22;4997335;28;1343;-60
2021/09/26 11:47:28;;;;;;;;;;;;;;;19.62;57.41;101334.09;4997578;28;1907;-60
2021/09/26 11:50:00;;;;;;;;;;;;;;;19.59;57.30;101337.41;4997450;28;1437;-60
2021/09/26 11:52:26;;;;;;;;;;;;;;;19.74;57.03;101333.75;4998840;28;1307;-62
2021/09/26 11:54:58;;;;;;;;;;;;;;;19.63;57.12;101327.47;4979615;28;1583;-59
2021/09/26 11:57:24;;;;;;;;;;;;;;;19.70;56.95;101328.00;4997266;28;1035;-59
2021/09/26 11:59:49;;;;;;;;;;;;;;;19.74;56.84;101329.06;4997807;28;1438;-59
2021/09/26 12:02:15;;;;;;;;;;;;;;;19.71;57.04;101320.53;4997411;28;1582;-61
2021/09/26 12:04:41;;;;;;;;;;;;;;;19.51;57.59;101318.66;4997091;28;1528;-61
2021/09/26 12:07:06;;;;;;;;;;;;;;;19.70;57.04;101319.72;4997091;28;1910;-60
2021/09/26 12:09:33;;;;;;;;;;;;;;;19.67;57.16;101314.75;4997770;28;1559;-61
2021/09/26 12:11:59;;;;;;;;;;;;;;;19.68;57.10;101319.16;4979881;28;1242;-60
2021/09/26 12:14:28;;;;;;;;;;;;;;;19.63;57.22;101316.44;5000129;28;1335;-61
2021/09/26 12:16:54;;;;;;;;;;;;;;;19.60;57.47;101314.22;4993199;28;1279;-60
2021/09/26 12:19:19;;;;;;;;;;;;;;;19.76;56.81;101321.31;4993079;28;818;-59
2021/09/26 12:21:45;;;;;;;;;;;;;;;19.72;57.01;101313.91;4997971;28;1463;-60
2021/09/26 12:24:11;;;;;;;;;;;;;;;19.59;57.29;101309.81;4997034;28;1450;-59
2021/09/26 12:26:37;;;;;;;;;;;;;;;19.46;57.34;101306.53;4978895;28;1644;-60
2021/09/26 12:29:05;;;;;;;;;;;;;;;19.63;57.11;101310.91;4997113;28;2003;-62
2021/09/26 12:31:31;;;;;;;;;;;;;;;19.54;57.13;101296.03;4997935;28;1598;-59
2021/09/26 12:33:57;;;;;;;;;;;;;;;19.56;57.14;101293.81;4997157;28;1207;-59
2021/09/26 12:36:23;;;;;;;;;;;;;;;19.55;57.08;101295.75;4997002;28;1112;-61
2021/09/26 12:38:49;;;;;;;;;;;;;;;19.61;56.95;101297.38;4979317;28;1440;-60
2021/09/26 12:41:22;;;;;;;;;;;;;;;19.72;56.56;101302.88;4978918;28;1221;-61
2021/09/26 12:43:49;;;;;;;;;;;;;;;19.75;56.48;101300.34;4996552;28;1714;-61
2021/09/26 12:46:15;;;;;;;;;;;;;;;19.54;57.19;101294.09;4996565;28;1442;-62
2021/09/26 12:48:41;;;;;;;;;;;;;;;19.51;57.03;101296.59;4978093;28;1906;-60
2021/09/26 12:51:09;;;;;;;;;;;;;;;19.52;57.08;101292.72;4973084;28;1760;-60
2021/09/26 12:53:34;;;;;;;;;;;;;;;19.60;56.87;101283.88;4982656;28;1373;-60
2021/09/26 12:56:00;;;;;;;;;;;;;;;19.62;56.93;101293.50;4978581;28;1565;-59
2021/09/26 12:58:29;;;;;;;;;;;;;;;19.46;57.28;101292.75;4996204;28;1521;-59
2021/09/26 13:01:06;;;;;;;;;;;;;;;19.63;56.73;101288.84;4996208;28;1388;-61
2021/09/26 13:03:32;;;;;;;;;;;;;;;19.57;56.79;101277.00;4995945;28;1532;-59
2021/09/26 13:06:01;;;;;;;;;;;;;;;19.53;56.85;101277.81;4995967;28;1766;-60
2021/09/26 13:08:29;;;;;;;;;;;;;;;19.66;56.68;101267.00;4995598;28;1969;-61
2021/09/26 13:10:59;;;;;;;;;;;;;;;19.62;56.44;101270.63;4978279;28;1432;-63